sensor_id;sensor_type;location;lat;lon;timestamp;temperature;humidity
11591;DHT22;5851;54.050;9.974;2024-01-25T00:02:26;7.40;99.90
11591;DHT22;5851;54.050;9.974;2024-01-25T00:04:53;7.40;99.90
11591;DHT22;5851;54.050;9.974;2024-01-25T00:07:20;7.30;99.90
11591;DHT22;5851;54.050;9.974;2024-01-25T00:09:48;7.30;99.90
11591;DHT22;5851;54.050;9.974;2024-01-25T00:12:15;7.30;99.90
11591;DHT22;5851;54.050;9.974;2024-01-25T00:14:42;7.30;99.90
11591;DHT22;5851;54.050;9.974;2024-01-25T00:17:09;7.30;99.90
11591;DHT22;5851;54.050;9.974;2024-01-25T00:19:36;7.30;99.90
11591;DHT22;5851;54.050;9.974;2024-01-25T00:22:03;7.20;99.90
11591;DHT22;5851;54.050;9.974;2024-01-25T00:24:30;7.30;99.90
11591;DHT22;5851;54.050;9.974;2024-01-25T00:26:59;7.30;99.90
11591;DHT22;5851;54.050;9.974;2024-01-25T00:29:25;7.30;99.90
11591;DHT22;5851;54.050;9.974;2024-01-25T00:31:52;7.30;99.90
11591;DHT22;5851;54.050;9.974;2024-01-25T00:34:20;7.30;99.90
11591;DHT22;5851;54.050;9.974;2024-01-25T00:36:47;7.40;99.90
11591;DHT22;5851;54.050;9.974;2024-01-25T00:39:15;7.30;99.90
11591;DHT22;5851;54.050;9.974;2024-01-25T00:41:44;7.30;99.90
11591;DHT22;5851;54.050;9.974;2024-01-25T00:44:14;7.30;99.90
11591;DHT22;5851;54.050;9.974;2024-01-25T00:46:41;7.30;99.90
11591;DHT22;5851;54.050;9.974;2024-01-25T00:49:09;7.30;99.90
11591;DHT22;5851;54.050;9.974;2024-01-25T00:51:36;7.30;99.90
11591;DHT22;5851;54.050;9.974;2024-01-25T00:54:03;7.30;99.90
11591;DHT22;5851;54.050;9.974;2024-01-25T00:56:31;7.30;99.90
11591;DHT22;5851;54.050;9.974;2024-01-25T00:58:59;7.30;99.90
11591;DHT22;5851;54.050;9.974;2024-01-25T01:01:28;7.30;99.90
11591;DHT22;5851;54.050;9.974;2024-01-25T01:03:55;7.30;99.90
11591;DHT22;5851;54.050;9.974;2024-01-25T01:06:25;7.30;99.90
11591;DHT22;5851;54.050;9.974;2024-01-25T01:08:52;7.30;99.90
11591;DHT22;5851;54.050;9.974;2024-01-25T01:11:19;7.30;99.90
11591;DHT22;5851;54.050;9.974;2024-01-25T01:13:46;7.30;99.90
11591;DHT22;5851;54.050;9.974;2024-01-25T01:16:13;7.30;99.90
11591;DHT22;5851;54.050;9.974;2024-01-25T01:18:41;7.30;99.90
11591;DHT22;5851;54.050;9.974;2024-01-25T01:21:08;7.30;99.90
11591;DHT22;5851;54.050;9.974;2024-01-25T01:23:35;7.30;99.90
11591;DHT22;5851;54.050;9.974;2024-01-25T01:26:04;7.30;99.90
11591;DHT22;5851;54.050;9.974;2024-01-25T01:28:31;7.20;99.90
11591;DHT22;5851;54.050;9.974;2024-01-25T01:30:58;7.30;99.90
11591;DHT22;5851;54.050;9.974;2024-01-25T01:33:25;7.30;99.90
11591;DHT22;5851;54.050;9.974;2024-01-25T01:35:53;7.30;99.90
11591;DHT22;5851;54.050;9.974;2024-01-25T01:38:20;7.30;99.90
11591;DHT22;5851;54.050;9.974;2024-01-25T01:40:47;7.30;99.90
11591;DHT22;5851;54.050;9.974;2024-01-25T01:43:18;7.30;99.90
11591;DHT22;5851;54.050;9.974;2024-01-25T01:45:45;7.30;99.90
11591;DHT22;5851;54.050;9.974;2024-01-25T01:48:12;7.30;99.90
11591;DHT22;5851;54.050;9.974;2024-01-25T01:50:39;7.30;99.90
11591;DHT22;5851;54.050;9.974;2024-01-25T01:53:08;7.30;99.90
11591;DHT22;5851;54.050;9.974;2024-01-25T01:55:35;7.30;99.90
11591;DHT22;5851;54.050;9.974;2024-01-25T01:58:02;7.30;99.90
11591;DHT22;5851;54.050;9.974;2024-01-25T02:00:31;7.30;99.90
11591;DHT22;5851;54.050;9.974;2024-01-25T02:02:59;7.30;99.90
11591;DHT22;5851;54.050;9.974;2024-01-25T02:05:26;7.30;99.90
11591;DHT22;5851;54.050;9.974;2024-01-25T02:07:53;7.40;99.90
11591;DHT22;5851;54.050;9.974;2024-01-25T02:10:21;7.30;99.90
11591;DHT22;5851;54.050;9.974;2024-01-25T02:12:48;7.30;99.90
11591;DHT22;5851;54.050;9.974;2024-01-25T02:15:15;7.30;99.90
11591;DHT22;5851;54.050;9.974;2024-01-25T02:17:43;7.30;99.90
11591;DHT22;5851;54.050;9.974;2024-01-25T02:20:11;7.30;99.90
11591;DHT22;5851;54.050;9.974;2024-01-25T02:22:39;7.30;99.90
11591;DHT22;5851;54.050;9.974;2024-01-25T02:25:06;7.30;99.90
11591;DHT22;5851;54.050;9.974;2024-01-25T02:27:33;7.30;99.90
11591;DHT22;5851;54.050;9.974;2024-01-25T02:30:05;7.30;99.90
11591;DHT22;5851;54.050;9.974;2024-01-25T02:32:32;7.30;99.90
11591;DHT22;5851;54.050;9.974;2024-01-25T02:34:59;7.30;99.90
11591;DHT22;5851;54.050;9.974;2024-01-25T02:37:26;7.30;99.90
11591;DHT22;5851;54.050;9.974;2024-01-25T02:39:55;7.30;99.90
11591;DHT22;5851;54.050;9.974;2024-01-25T02:42:22;7.30;99.90
11591;DHT22;5851;54.050;9.974;2024-01-25T02:44:49;7.30;99.90
11591;DHT22;5851;54.050;9.974;2024-01-25T02:47:16;7.30;99.90
11591;DHT22;5851;54.050;9.974;2024-01-25T02:49:43;7.30;99.90
11591;DHT22;5851;54.050;9.974;2024-01-25T02:52:09;7.30;99.90
11591;DHT22;5851;54.050;9.974;2024-01-25T02:54:36;7.30;99.90
11591;DHT22;5851;54.050;9.974;2024-01-25T02:57:05;7.20;99.90
11591;DHT22;5851;54.050;9.974;2024-01-25T02:59:32;7.30;99.90
11591;DHT22;5851;54.050;9.974;2024-01-25T03:01:59;7.30;99.90
11591;DHT22;5851;54.050;9.974;2024-01-25T03:04:26;7.20;99.90
11591;DHT22;5851;54.050;9.974;2024-01-25T03:06:53;7.20;99.90
11591;DHT22;5851;54.050;9.974;2024-01-25T03:09:20;7.20;99.90
11591;DHT22;5851;54.050;9.974;2024-01-25T03:11:49;7.20;99.90
11591;DHT22;5851;54.050;9.974;2024-01-25T03:14:17;7.30;99.90
11591;DHT22;5851;54.050;9.974;2024-01-25T03:16:44;7.30;99.90
11591;DHT22;5851;54.050;9.974;2024-01-25T03:19:12;7.30;99.90
11591;DHT22;5851;54.050;9.974;2024-01-25T03:21:39;7.20;99.90
11591;DHT22;5851;54.050;9.974;2024-01-25T03:24:06;7.30;99.90
11591;DHT22;5851;54.050;9.974;2024-01-25T03:26:33;7.20;99.90
11591;DHT22;5851;54.050;9.974;2024-01-25T03:29:00;7.30;99.90
11591;DHT22;5851;54.050;9.974;2024-01-25T03:31:29;7.40;99.90
11591;DHT22;5851;54.050;9.974;2024-01-25T03:33:55;7.20;99.90
11591;DHT22;5851;54.050;9.974;2024-01-25T03:36:22;7.20;99.90
11591;DHT22;5851;54.050;9.974;2024-01-25T03:38:49;7.30;99.90
11591;DHT22;5851;54.050;9.974;2024-01-25T03:41:16;7.30;99.90
11591;DHT22;5851;54.050;9.974;2024-01-25T03:43:43;7.30;99.90
11591;DHT22;5851;54.050;9.974;2024-01-25T03:46:10;7.20;99.90
11591;DHT22;5851;54.050;9.974;2024-01-25T03:48:39;7.40;99.90
11591;DHT22;5851;54.050;9.974;2024-01-25T03:51:06;7.30;99.90
11591;DHT22;5851;54.050;9.974;2024-01-25T03:53:32;7.30;99.90
11591;DHT22;5851;54.050;9.974;2024-01-25T03:56:00;7.30;99.90
11591;DHT22;5851;54.050;9.974;2024-01-25T03:58:26;7.30;99.90
11591;DHT22;5851;54.050;9.974;2024-01-25T04:00:53;7.30;99.90
11591;DHT22;5851;54.050;9.974;2024-01-25T04:03:20;7.30;99.90
11591;DHT22;5851;54.050;9.974;2024-01-25T04:05:49;7.20;99.90
11591;DHT22;5851;54.050;9.974;2024-01-25T04:08:16;7.40;99.90
11591;DHT22;5851;54.050;9.974;2024-01-25T04:10:42;7.30;99.90
11591;DHT22;5851;54.050;9.974;2024-01-25T04:13:09;7.30;99.90
11591;DHT22;5851;54.050;9.974;2024-01-25T04:15:36;7.20;99.90
11591;DHT22;5851;54.050;9.974;2024-01-25T04:18:04;7.30;99.90
11591;DHT22;5851;54.050;9.974;2024-01-25T04:20:31;7.20;99.90
11591;DHT22;5851;54.050;9.974;2024-01-25T04:23:01;7.20;99.90
11591;DHT22;5851;54.050;9.974;2024-01-25T04:25:28;7.20;99.90
11591;DHT22;5851;54.050;9.974;2024-01-25T04:27:55;7.20;99.90
11591;DHT22;5851;54.050;9.974;2024-01-25T04:30:22;7.20;99.90
11591;DHT22;5851;54.050;9.974;2024-01-25T04:32:49;7.30;99.90
11591;DHT22;5851;54.050;9.974;2024-01-25T04:35:16;7.20;99.90
11591;DHT22;5851;54.050;9.974;2024-01-25T04:37:43;7.20;99.90
11591;DHT22;5851;54.050;9.974;2024-01-25T04:40:11;7.20;99.90
11591;DHT22;5851;54.050;9.974;2024-01-25T04:42:38;7.20;99.90
11591;DHT22;5851;54.050;9.974;2024-01-25T04:45:06;7.20;99.90
11591;DHT22;5851;54.050;9.974;2024-01-25T04:47:33;7.20;99.90
11591;DHT22;5851;54.050;9.974;2024-01-25T04:50:00;7.20;99.90
11591;DHT22;5851;54.050;9.974;2024-01-25T04:52:27;7.20;99.90
11591;DHT22;5851;54.050;9.974;2024-01-25T04:54:54;7.20;99.90
11591;DHT22;5851;54.050;9.974;2024-01-25T04:57:22;7.10;99.90
11591;DHT22;5851;54.050;9.974;2024-01-25T04:59:49;7.10;99.90
11591;DHT22;5851;54.050;9.974;2024-01-25T05:02:16;7.10;99.90
11591;DHT22;5851;54.050;9.974;2024-01-25T05:04:43;7.10;99.90
11591;DHT22;5851;54.050;9.974;2024-01-25T05:07:10;7.10;99.90
11591;DHT22;5851;54.050;9.974;2024-01-25T05:09:36;7.10;99.90
11591;DHT22;5851;54.050;9.974;2024-01-25T05:12:03;7.10;99.90
11591;DHT22;5851;54.050;9.974;2024-01-25T05:14:31;7.10;99.90
11591;DHT22;5851;54.050;9.974;2024-01-25T05:16:58;7.00;99.90
11591;DHT22;5851;54.050;9.974;2024-01-25T05:19:25;7.10;99.90
11591;DHT22;5851;54.050;9.974;2024-01-25T05:21:52;7.10;99.90
11591;DHT22;5851;54.050;9.974;2024-01-25T05:24:19;7.00;99.90
11591;DHT22;5851;54.050;9.974;2024-01-25T05:26:46;6.90;99.90
11591;DHT22;5851;54.050;9.974;2024-01-25T05:29:13;7.00;99.90
11591;DHT22;5851;54.050;9.974;2024-01-25T05:31:42;6.90;99.90
11591;DHT22;5851;54.050;9.974;2024-01-25T05:34:09;6.90;99.90
11591;DHT22;5851;54.050;9.974;2024-01-25T05:36:36;7.00;99.90
11591;DHT22;5851;54.050;9.974;2024-01-25T05:39:03;7.00;99.90
11591;DHT22;5851;54.050;9.974;2024-01-25T05:41:32;7.00;99.90
11591;DHT22;5851;54.050;9.974;2024-01-25T05:43:59;7.00;99.90
11591;DHT22;5851;54.050;9.974;2024-01-25T05:46:26;7.00;99.90
11591;DHT22;5851;54.050;9.974;2024-01-25T05:48:54;6.90;99.90
11591;DHT22;5851;54.050;9.974;2024-01-25T05:51:21;6.90;99.90
11591;DHT22;5851;54.050;9.974;2024-01-25T05:53:48;6.90;99.90
11591;DHT22;5851;54.050;9.974;2024-01-25T05:56:15;6.90;99.90
11591;DHT22;5851;54.050;9.974;2024-01-25T05:58:43;6.90;99.90
11591;DHT22;5851;54.050;9.974;2024-01-25T06:01:09;6.90;99.90
11591;DHT22;5851;54.050;9.974;2024-01-25T06:03:36;6.80;99.90
11591;DHT22;5851;54.050;9.974;2024-01-25T06:06:06;6.80;99.90
11591;DHT22;5851;54.050;9.974;2024-01-25T06:08:34;6.80;99.90
11591;DHT22;5851;54.050;9.974;2024-01-25T06:11:01;6.80;99.90
11591;DHT22;5851;54.050;9.974;2024-01-25T06:13:28;6.80;99.90
11591;DHT22;5851;54.050;9.974;2024-01-25T06:15:55;6.80;99.90
11591;DHT22;5851;54.050;9.974;2024-01-25T06:18:22;6.80;99.90
11591;DHT22;5851;54.050;9.974;2024-01-25T06:20:49;6.80;99.90
11591;DHT22;5851;54.050;9.974;2024-01-25T06:23:17;6.70;99.90
11591;DHT22;5851;54.050;9.974;2024-01-25T06:25:44;6.80;99.90
11591;DHT22;5851;54.050;9.974;2024-01-25T06:28:11;6.70;99.90
11591;DHT22;5851;54.050;9.974;2024-01-25T06:30:38;6.70;99.90
11591;DHT22;5851;54.050;9.974;2024-01-25T06:33:05;6.70;99.90
11591;DHT22;5851;54.050;9.974;2024-01-25T06:35:32;6.70;99.90
11591;DHT22;5851;54.050;9.974;2024-01-25T06:37:59;6.70;99.90
11591;DHT22;5851;54.050;9.974;2024-01-25T06:40:27;6.80;99.90
11591;DHT22;5851;54.050;9.974;2024-01-25T06:42:54;6.70;99.90
11591;DHT22;5851;54.050;9.974;2024-01-25T06:45:21;6.70;99.90
11591;DHT22;5851;54.050;9.974;2024-01-25T06:47:48;6.70;99.90
11591;DHT22;5851;54.050;9.974;2024-01-25T06:50:15;6.70;99.90
11591;DHT22;5851;54.050;9.974;2024-01-25T06:52:42;6.70;99.90
11591;DHT22;5851;54.050;9.974;2024-01-25T06:55:09;6.80;99.90
11591;DHT22;5851;54.050;9.974;2024-01-25T06:57:38;6.70;99.90
11591;DHT22;5851;54.050;9.974;2024-01-25T07:00:07;6.70;99.90
11591;DHT22;5851;54.050;9.974;2024-01-25T07:02:36;6.70;99.90
11591;DHT22;5851;54.050;9.974;2024-01-25T07:05:04;6.70;99.90
11591;DHT22;5851;54.050;9.974;2024-01-25T07:07:31;6.70;99.90
11591;DHT22;5851;54.050;9.974;2024-01-25T07:09:58;6.70;99.90
11591;DHT22;5851;54.050;9.974;2024-01-25T07:12:25;6.70;99.90
11591;DHT22;5851;54.050;9.974;2024-01-25T07:14:54;6.60;99.90
11591;DHT22;5851;54.050;9.974;2024-01-25T07:17:20;6.60;99.90
11591;DHT22;5851;54.050;9.974;2024-01-25T07:19:47;6.60;99.90
11591;DHT22;5851;54.050;9.974;2024-01-25T07:22:14;6.60;99.90
11591;DHT22;5851;54.050;9.974;2024-01-25T07:24:43;6.60;99.90
11591;DHT22;5851;54.050;9.974;2024-01-25T07:27:10;6.60;99.90
11591;DHT22;5851;54.050;9.974;2024-01-25T07:29:37;6.60;99.90
11591;DHT22;5851;54.050;9.974;2024-01-25T07:32:05;6.60;99.90
11591;DHT22;5851;54.050;9.974;2024-01-25T07:34:33;6.60;99.90
11591;DHT22;5851;54.050;9.974;2024-01-25T07:37:00;6.50;99.90
11591;DHT22;5851;54.050;9.974;2024-01-25T07:39:26;6.50;99.90
11591;DHT22;5851;54.050;9.974;2024-01-25T07:41:53;6.50;99.90
11591;DHT22;5851;54.050;9.974;2024-01-25T07:44:20;6.60;99.90
11591;DHT22;5851;54.050;9.974;2024-01-25T07:46:47;6.50;99.90
11591;DHT22;5851;54.050;9.974;2024-01-25T07:49:15;6.60;99.90
11591;DHT22;5851;54.050;9.974;2024-01-25T07:51:42;6.50;99.90
11591;DHT22;5851;54.050;9.974;2024-01-25T07:54:09;6.60;99.90
11591;DHT22;5851;54.050;9.974;2024-01-25T07:56:36;6.60;99.90
11591;DHT22;5851;54.050;9.974;2024-01-25T07:59:03;6.60;99.90
11591;DHT22;5851;54.050;9.974;2024-01-25T08:01:30;6.70;99.90
11591;DHT22;5851;54.050;9.974;2024-01-25T08:03:57;6.70;99.90
11591;DHT22;5851;54.050;9.974;2024-01-25T08:06:26;6.70;99.90
11591;DHT22;5851;54.050;9.974;2024-01-25T08:08:53;6.60;99.90
11591;DHT22;5851;54.050;9.974;2024-01-25T08:11:20;6.70;99.90
11591;DHT22;5851;54.050;9.974;2024-01-25T08:13:48;6.70;99.90
11591;DHT22;5851;54.050;9.974;2024-01-25T08:16:15;6.70;99.90
11591;DHT22;5851;54.050;9.974;2024-01-25T08:18:44;6.70;99.90
11591;DHT22;5851;54.050;9.974;2024-01-25T08:21:12;6.70;99.90
11591;DHT22;5851;54.050;9.974;2024-01-25T08:23:41;6.70;99.90
11591;DHT22;5851;54.050;9.974;2024-01-25T08:26:08;6.70;99.90
11591;DHT22;5851;54.050;9.974;2024-01-25T08:28:38;6.70;99.90
11591;DHT22;5851;54.050;9.974;2024-01-25T08:31:06;6.70;99.90
11591;DHT22;5851;54.050;9.974;2024-01-25T08:33:33;6.70;99.90
11591;DHT22;5851;54.050;9.974;2024-01-25T08:36:00;6.70;99.90
11591;DHT22;5851;54.050;9.974;2024-01-25T08:38:27;6.70;99.90
11591;DHT22;5851;54.050;9.974;2024-01-25T08:40:55;6.70;99.90
11591;DHT22;5851;54.050;9.974;2024-01-25T08:43:22;6.80;99.90
11591;DHT22;5851;54.050;9.974;2024-01-25T08:45:49;6.80;99.90
11591;DHT22;5851;54.050;9.974;2024-01-25T08:48:16;6.80;99.90
11591;DHT22;5851;54.050;9.974;2024-01-25T08:50:43;6.80;99.90
11591;DHT22;5851;54.050;9.974;2024-01-25T08:53:10;6.80;99.90
11591;DHT22;5851;54.050;9.974;2024-01-25T08:55:37;6.80;99.90
11591;DHT22;5851;54.050;9.974;2024-01-25T08:58:04;6.80;99.90
11591;DHT22;5851;54.050;9.974;2024-01-25T09:00:31;6.80;99.90
11591;DHT22;5851;54.050;9.974;2024-01-25T09:02:58;6.80;99.90
11591;DHT22;5851;54.050;9.974;2024-01-25T09:05:25;6.80;99.90
11591;DHT22;5851;54.050;9.974;2024-01-25T09:07:53;6.80;99.90
11591;DHT22;5851;54.050;9.974;2024-01-25T09:10:21;6.80;99.90
11591;DHT22;5851;54.050;9.974;2024-01-25T09:12:47;6.90;99.90
11591;DHT22;5851;54.050;9.974;2024-01-25T09:15:16;6.90;99.90
11591;DHT22;5851;54.050;9.974;2024-01-25T09:17:42;6.90;99.90
11591;DHT22;5851;54.050;9.974;2024-01-25T09:20:09;6.90;99.90
11591;DHT22;5851;54.050;9.974;2024-01-25T09:22:36;6.90;99.90
11591;DHT22;5851;54.050;9.974;2024-01-25T09:25:04;7.00;99.90
11591;DHT22;5851;54.050;9.974;2024-01-25T09:27:31;6.90;99.90
11591;DHT22;5851;54.050;9.974;2024-01-25T09:29:58;6.90;99.90
11591;DHT22;5851;54.050;9.974;2024-01-25T09:32:26;6.90;99.90
11591;DHT22;5851;54.050;9.974;2024-01-25T09:34:53;7.00;99.90
11591;DHT22;5851;54.050;9.974;2024-01-25T09:37:20;7.00;99.90
11591;DHT22;5851;54.050;9.974;2024-01-25T09:39:48;6.90;99.90
11591;DHT22;5851;54.050;9.974;2024-01-25T09:42:17;6.90;99.90
11591;DHT22;5851;54.050;9.974;2024-01-25T09:44:44;7.00;99.90
11591;DHT22;5851;54.050;9.974;2024-01-25T09:47:11;7.00;99.90
11591;DHT22;5851;54.050;9.974;2024-01-25T09:49:41;7.00;99.90
11591;DHT22;5851;54.050;9.974;2024-01-25T09:52:11;7.00;99.90
11591;DHT22;5851;54.050;9.974;2024-01-25T09:54:39;7.00;99.90
11591;DHT22;5851;54.050;9.974;2024-01-25T09:57:11;7.00;99.90
11591;DHT22;5851;54.050;9.974;2024-01-25T09:59:40;7.00;99.90
11591;DHT22;5851;54.050;9.974;2024-01-25T10:02:08;7.00;99.90
11591;DHT22;5851;54.050;9.974;2024-01-25T10:04:36;7.10;99.90
11591;DHT22;5851;54.050;9.974;2024-01-25T10:07:04;7.00;99.90
11591;DHT22;5851;54.050;9.974;2024-01-25T10:09:38;7.00;99.90
11591;DHT22;5851;54.050;9.974;2024-01-25T10:12:06;7.00;99.90
11591;DHT22;5851;54.050;9.974;2024-01-25T10:14:33;7.00;99.90
11591;DHT22;5851;54.050;9.974;2024-01-25T10:17:00;6.90;99.90
11591;DHT22;5851;54.050;9.974;2024-01-25T10:19:28;7.00;99.90
11591;DHT22;5851;54.050;9.974;2024-01-25T10:21:56;7.00;99.90
11591;DHT22;5851;54.050;9.974;2024-01-25T10:24:24;7.10;99.90
11591;DHT22;5851;54.050;9.974;2024-01-25T10:26:51;7.10;99.90
11591;DHT22;5851;54.050;9.974;2024-01-25T10:29:18;7.10;99.90
11591;DHT22;5851;54.050;9.974;2024-01-25T10:31:45;7.10;99.90
11591;DHT22;5851;54.050;9.974;2024-01-25T10:34:13;7.10;99.90
11591;DHT22;5851;54.050;9.974;2024-01-25T10:36:41;7.10;99.90
11591;DHT22;5851;54.050;9.974;2024-01-25T10:39:08;7.10;99.90
11591;DHT22;5851;54.050;9.974;2024-01-25T10:41:37;7.20;99.90
11591;DHT22;5851;54.050;9.974;2024-01-25T10:44:05;7.10;99.90
11591;DHT22;5851;54.050;9.974;2024-01-25T10:46:34;7.20;99.90
11591;DHT22;5851;54.050;9.974;2024-01-25T10:49:02;7.20;99.90
11591;DHT22;5851;54.050;9.974;2024-01-25T10:51:30;7.20;99.90
11591;DHT22;5851;54.050;9.974;2024-01-25T10:53:57;7.20;99.90
11591;DHT22;5851;54.050;9.974;2024-01-25T10:56:25;7.20;99.90
11591;DHT22;5851;54.050;9.974;2024-01-25T10:58:54;7.10;99.90
11591;DHT22;5851;54.050;9.974;2024-01-25T11:01:21;7.20;99.90
11591;DHT22;5851;54.050;9.974;2024-01-25T11:03:49;7.20;99.90
11591;DHT22;5851;54.050;9.974;2024-01-25T11:06:17;7.20;99.90
11591;DHT22;5851;54.050;9.974;2024-01-25T11:08:46;7.30;99.90
11591;DHT22;5851;54.050;9.974;2024-01-25T11:11:14;7.20;99.90
11591;DHT22;5851;54.050;9.974;2024-01-25T11:13:42;7.20;99.90
11591;DHT22;5851;54.050;9.974;2024-01-25T11:16:15;7.10;99.90
11591;DHT22;5851;54.050;9.974;2024-01-25T11:18:49;7.20;99.90
11591;DHT22;5851;54.050;9.974;2024-01-25T11:21:26;7.30;99.90
11591;DHT22;5851;54.050;9.974;2024-01-25T11:24:03;7.30;99.90
11591;DHT22;5851;54.050;9.974;2024-01-25T11:26:32;7.30;99.90
11591;DHT22;5851;54.050;9.974;2024-01-25T11:28:59;7.30;99.90
11591;DHT22;5851;54.050;9.974;2024-01-25T11:31:28;7.30;99.90
11591;DHT22;5851;54.050;9.974;2024-01-25T11:33:57;7.30;99.90
11591;DHT22;5851;54.050;9.974;2024-01-25T11:36:25;7.20;99.90
11591;DHT22;5851;54.050;9.974;2024-01-25T11:38:52;7.30;99.90
11591;DHT22;5851;54.050;9.974;2024-01-25T11:41:19;7.30;99.90
11591;DHT22;5851;54.050;9.974;2024-01-25T11:43:48;7.30;99.90
11591;DHT22;5851;54.050;9.974;2024-01-25T11:46:15;7.30;99.90
11591;DHT22;5851;54.050;9.974;2024-01-25T11:48:44;7.30;99.90
11591;DHT22;5851;54.050;9.974;2024-01-25T11:51:11;7.30;99.90
11591;DHT22;5851;54.050;9.974;2024-01-25T11:53:39;7.30;99.90
11591;DHT22;5851;54.050;9.974;2024-01-25T11:56:08;7.30;99.90
11591;DHT22;5851;54.050;9.974;2024-01-25T11:58:36;7.30;99.90
11591;DHT22;5851;54.050;9.974;2024-01-25T12:01:05;7.30;99.90
11591;DHT22;5851;54.050;9.974;2024-01-25T12:03:34;7.30;99.90
11591;DHT22;5851;54.050;9.974;2024-01-25T12:06:03;7.30;99.90
11591;DHT22;5851;54.050;9.974;2024-01-25T12:08:32;7.30;99.90
11591;DHT22;5851;54.050;9.974;2024-01-25T12:11:03;7.30;99.90
11591;DHT22;5851;54.050;9.974;2024-01-25T12:13:34;7.30;99.90
11591;DHT22;5851;54.050;9.974;2024-01-25T12:16:03;7.30;99.90
11591;DHT22;5851;54.050;9.974;2024-01-25T12:18:31;7.30;99.90
11591;DHT22;5851;54.050;9.974;2024-01-25T12:20:59;7.30;99.90
11591;DHT22;5851;54.050;9.974;2024-01-25T12:23:35;7.30;99.90
11591;DHT22;5851;54.050;9.974;2024-01-25T12:26:02;7.30;99.90
11591;DHT22;5851;54.050;9.974;2024-01-25T12:28:30;7.40;99.90
11591;DHT22;5851;54.050;9.974;2024-01-25T12:30:58;7.40;99.90
11591;DHT22;5851;54.050;9.974;2024-01-25T12:33:25;7.30;99.90
11591;DHT22;5851;54.050;9.974;2024-01-25T12:35:52;7.30;99.90
11591;DHT22;5851;54.050;9.974;2024-01-25T12:38:20;7.40;99.90
11591;DHT22;5851;54.050;9.974;2024-01-25T12:40:49;7.40;99.90
11591;DHT22;5851;54.050;9.974;2024-01-25T12:43:16;7.40;99.90
11591;DHT22;5851;54.050;9.974;2024-01-25T12:45:44;7.40;99.90
11591;DHT22;5851;54.050;9.974;2024-01-25T12:48:11;7.40;99.90
11591;DHT22;5851;54.050;9.974;2024-01-25T12:50:38;7.40;99.90
11591;DHT22;5851;54.050;9.974;2024-01-25T12:53:05;7.40;99.90
11591;DHT22;5851;54.050;9.974;2024-01-25T12:55:33;7.50;99.90
11591;DHT22;5851;54.050;9.974;2024-01-25T12:58:02;7.50;99.90
11591;DHT22;5851;54.050;9.974;2024-01-25T13:00:29;7.50;99.90
11591;DHT22;5851;54.050;9.974;2024-01-25T13:02:56;7.40;99.90
11591;DHT22;5851;54.050;9.974;2024-01-25T13:05:23;7.40;99.90
11591;DHT22;5851;54.050;9.974;2024-01-25T13:07:50;7.50;99.90
11591;DHT22;5851;54.050;9.974;2024-01-25T13:10:17;7.40;99.90
11591;DHT22;5851;54.050;9.974;2024-01-25T13:12:44;7.40;99.90
11591;DHT22;5851;54.050;9.974;2024-01-25T13:15:12;7.40;99.90
11591;DHT22;5851;54.050;9.974;2024-01-25T13:17:40;7.30;99.90
11591;DHT22;5851;54.050;9.974;2024-01-25T13:20:07;7.40;99.90
11591;DHT22;5851;54.050;9.974;2024-01-25T13:22:35;7.40;99.90
11591;DHT22;5851;54.050;9.974;2024-01-25T13:25:02;7.40;99.90
11591;DHT22;5851;54.050;9.974;2024-01-25T13:27:29;7.40;99.90
11591;DHT22;5851;54.050;9.974;2024-01-25T13:29:56;7.40;99.90
11591;DHT22;5851;54.050;9.974;2024-01-25T13:32:24;7.40;99.90
11591;DHT22;5851;54.050;9.974;2024-01-25T13:34:51;7.30;99.90
11591;DHT22;5851;54.050;9.974;2024-01-25T13:37:18;7.40;99.90
11591;DHT22;5851;54.050;9.974;2024-01-25T13:39:45;7.30;99.90
11591;DHT22;5851;54.050;9.974;2024-01-25T13:42:12;7.30;99.90
11591;DHT22;5851;54.050;9.974;2024-01-25T13:44:39;7.40;99.90
11591;DHT22;5851;54.050;9.974;2024-01-25T13:47:06;7.30;99.90
11591;DHT22;5851;54.050;9.974;2024-01-25T13:49:34;7.30;99.90
11591;DHT22;5851;54.050;9.974;2024-01-25T13:52:02;7.30;99.90
11591;DHT22;5851;54.050;9.974;2024-01-25T13:54:29;7.30;99.90
11591;DHT22;5851;54.050;9.974;2024-01-25T13:56:56;7.30;99.90
11591;DHT22;5851;54.050;9.974;2024-01-25T13:59:23;7.30;99.90
11591;DHT22;5851;54.050;9.974;2024-01-25T14:01:51;7.30;99.90
11591;DHT22;5851;54.050;9.974;2024-01-25T14:04:18;7.30;99.90
11591;DHT22;5851;54.050;9.974;2024-01-25T14:06:46;7.30;99.90
11591;DHT22;5851;54.050;9.974;2024-01-25T14:09:13;7.40;99.90
11591;DHT22;5851;54.050;9.974;2024-01-25T14:11:40;7.40;99.90
11591;DHT22;5851;54.050;9.974;2024-01-25T14:14:07;7.40;99.90
11591;DHT22;5851;54.050;9.974;2024-01-25T14:16:35;7.40;99.90
11591;DHT22;5851;54.050;9.974;2024-01-25T14:19:02;7.40;99.90
11591;DHT22;5851;54.050;9.974;2024-01-25T14:21:30;7.40;99.90
11591;DHT22;5851;54.050;9.974;2024-01-25T14:23:58;7.40;99.90
11591;DHT22;5851;54.050;9.974;2024-01-25T14:26:25;7.40;99.90
11591;DHT22;5851;54.050;9.974;2024-01-25T14:28:52;7.30;99.90
11591;DHT22;5851;54.050;9.974;2024-01-25T14:31:19;7.30;99.90
11591;DHT22;5851;54.050;9.974;2024-01-25T14:33:46;7.30;99.90
11591;DHT22;5851;54.050;9.974;2024-01-25T14:36:13;7.40;99.90
11591;DHT22;5851;54.050;9.974;2024-01-25T14:38:40;7.30;99.90
11591;DHT22;5851;54.050;9.974;2024-01-25T14:41:09;7.30;99.90
11591;DHT22;5851;54.050;9.974;2024-01-25T14:43:37;7.30;99.90
11591;DHT22;5851;54.050;9.974;2024-01-25T14:46:05;7.30;99.90
11591;DHT22;5851;54.050;9.974;2024-01-25T14:48:32;7.30;99.90
11591;DHT22;5851;54.050;9.974;2024-01-25T14:50:59;7.30;99.90
11591;DHT22;5851;54.050;9.974;2024-01-25T14:53:26;7.30;99.90
11591;DHT22;5851;54.050;9.974;2024-01-25T14:55:53;7.30;99.90
11591;DHT22;5851;54.050;9.974;2024-01-25T14:58:21;7.30;99.90
11591;DHT22;5851;54.050;9.974;2024-01-25T15:00:49;7.30;99.90
11591;DHT22;5851;54.050;9.974;2024-01-25T15:03:16;7.20;99.90
11591;DHT22;5851;54.050;9.974;2024-01-25T15:05:43;7.10;99.90
11591;DHT22;5851;54.050;9.974;2024-01-25T15:08:10;7.20;99.90
11591;DHT22;5851;54.050;9.974;2024-01-25T15:10:37;7.20;99.90
11591;DHT22;5851;54.050;9.974;2024-01-25T15:13:04;7.20;99.90
11591;DHT22;5851;54.050;9.974;2024-01-25T15:15:33;7.20;99.90
11591;DHT22;5851;54.050;9.974;2024-01-25T15:18:00;7.20;99.90
11591;DHT22;5851;54.050;9.974;2024-01-25T15:20:28;7.20;99.90
11591;DHT22;5851;54.050;9.974;2024-01-25T15:22:55;7.30;99.90
11591;DHT22;5851;54.050;9.974;2024-01-25T15:25:23;7.30;99.90
11591;DHT22;5851;54.050;9.974;2024-01-25T15:27:52;7.30;99.90
11591;DHT22;5851;54.050;9.974;2024-01-25T15:30:19;7.30;99.90
11591;DHT22;5851;54.050;9.974;2024-01-25T15:32:47;7.40;99.90
11591;DHT22;5851;54.050;9.974;2024-01-25T15:35:14;7.30;99.90
11591;DHT22;5851;54.050;9.974;2024-01-25T15:37:41;7.30;99.90
11591;DHT22;5851;54.050;9.974;2024-01-25T15:40:09;7.30;99.90
11591;DHT22;5851;54.050;9.974;2024-01-25T15:42:38;7.30;99.90
11591;DHT22;5851;54.050;9.974;2024-01-25T15:45:05;7.30;99.90
11591;DHT22;5851;54.050;9.974;2024-01-25T15:47:34;7.20;99.90
11591;DHT22;5851;54.050;9.974;2024-01-25T15:50:02;7.10;99.90
11591;DHT22;5851;54.050;9.974;2024-01-25T15:52:33;7.30;99.90
11591;DHT22;5851;54.050;9.974;2024-01-25T15:55:00;7.20;99.90
11591;DHT22;5851;54.050;9.974;2024-01-25T15:57:28;7.30;99.90
11591;DHT22;5851;54.050;9.974;2024-01-25T15:59:55;7.20;99.90
11591;DHT22;5851;54.050;9.974;2024-01-25T16:02:23;7.20;99.90
11591;DHT22;5851;54.050;9.974;2024-01-25T16:04:50;7.20;99.90